createdAt,value
2018-06-03T20:36:10.337Z,24.85
2018-06-03T20:38:36.358Z,26.33
2018-06-03T20:41:02.408Z,19.83
2018-06-03T20:46:00.827Z,21.73
2018-06-03T20:48:26.838Z,18.17
2018-06-03T20:50:52.932Z,17.93
2018-06-03T20:53:18.948Z,18.77
2018-06-03T20:55:44.980Z,20.53
2018-06-03T20:58:10.995Z,14.03
2018-06-03T21:00:37.023Z,18.33
2018-06-03T21:03:03.042Z,20.47
2018-06-03T21:05:29.156Z,17.53
2018-06-03T21:07:55.185Z,18.57
2018-06-03T21:10:21.215Z,13.33
2018-06-03T21:12:47.224Z,19.83
2018-06-03T21:15:13.255Z,15.33
2018-06-03T21:17:39.262Z,12.37
2018-06-03T21:20:05.309Z,14.33
2018-06-03T21:22:31.329Z,10.50
2018-06-03T21:24:57.372Z,12.87
2018-06-03T21:27:23.399Z,12.93
2018-06-03T21:29:49.426Z,13.30
2018-06-03T21:32:15.459Z,17.53
2018-06-03T21:34:41.519Z,11.37
2018-06-03T21:37:07.532Z,14.83
2018-06-03T21:39:33.563Z,18.60
2018-06-03T21:41:59.591Z,12.43
2018-06-03T21:44:25.623Z,11.87
2018-06-03T21:46:51.667Z,15.23
2018-06-03T21:49:17.687Z,9.40
2018-06-03T21:51:43.699Z,12.37
2018-06-03T21:54:09.728Z,14.53
2018-06-03T21:56:35.742Z,10.90
2018-06-03T21:59:01.763Z,12.13
2018-06-03T22:01:27.811Z,14.80
2018-06-03T22:03:53.826Z,11.03
2018-06-03T22:06:19.848Z,7.83
2018-06-03T22:08:45.867Z,8.30
2018-06-03T22:11:11.890Z,8.90
2018-06-03T22:13:37.914Z,9.07
2018-06-03T22:16:03.968Z,12.07
2018-06-03T22:18:29.988Z,17.83
2018-06-03T22:20:56.014Z,9.77
2018-06-03T22:23:22.038Z,12.90
2018-06-03T22:25:48.071Z,17.50
2018-06-03T22:28:14.107Z,7.97
2018-06-03T22:30:40.131Z,6.10
2018-06-03T22:33:06.146Z,10.17
2018-06-03T22:35:32.166Z,8.33
2018-06-03T22:37:58.185Z,9.07
2018-06-03T22:40:24.356Z,8.43
2018-06-03T22:42:50.385Z,10.00
2018-06-03T22:45:16.432Z,10.20
2018-06-03T22:47:42.464Z,7.53
2018-06-03T22:50:08.546Z,7.77
2018-06-03T22:52:34.537Z,7.90
2018-06-03T22:55:00.562Z,8.63
2018-06-03T22:57:26.599Z,5.70
2018-06-03T22:59:52.635Z,8.13
2018-06-03T23:02:18.650Z,5.27
2018-06-03T23:04:44.666Z,7.67
2018-06-03T23:07:10.682Z,7.73
2018-06-03T23:09:36.702Z,8.07
2018-06-03T23:12:02.722Z,9.13
2018-06-03T23:14:28.727Z,9.03
2018-06-03T23:16:54.801Z,7.83
2018-06-03T23:19:20.794Z,5.97
2018-06-03T23:21:46.835Z,5.67
2018-06-03T23:24:12.839Z,4.53
2018-06-03T23:26:38.864Z,7.70
2018-06-03T23:29:04.896Z,5.57
2018-06-03T23:31:30.913Z,5.00
2018-06-03T23:33:56.932Z,6.57
2018-06-03T23:36:22.950Z,5.90
2018-06-03T23:38:48.963Z,5.10
2018-06-03T23:41:14.995Z,6.10
2018-06-03T23:43:41.014Z,6.80
2018-06-03T23:46:07.052Z,4.50
2018-06-03T23:48:33.062Z,9.00
2018-06-03T23:50:59.113Z,4.43
2018-06-03T23:53:25.141Z,7.87
2018-06-03T23:55:51.162Z,4.73
2018-06-03T23:58:17.170Z,4.30
